createdAt,value
2023-03-16T00:02:26.397Z,53.90
2023-03-16T00:04:55.491Z,53.92
2023-03-16T00:07:23.240Z,54.50
2023-03-16T00:09:50.960Z,53.75
2023-03-16T00:12:20.224Z,53.20
2023-03-16T00:14:49.559Z,53.41
2023-03-16T00:17:19.918Z,53.99
2023-03-16T00:19:54.914Z,53.74
2023-03-16T00:22:24.310Z,53.61
2023-03-16T00:24:52.613Z,53.55
2023-03-16T00:27:22.693Z,53.70
2023-03-16T00:29:55.522Z,53.75
2023-03-16T00:32:25.576Z,53.60
2023-03-16T00:34:54.804Z,54.25
2023-03-16T00:37:23.621Z,54.14
2023-03-16T00:39:51.639Z,54.34
2023-03-16T00:42:20.928Z,54.06
2023-03-16T00:44:48.631Z,53.54
2023-03-16T00:47:16.304Z,54.17
2023-03-16T00:49:45.560Z,54.11
2023-03-16T00:52:15.660Z,54.49
2023-03-16T00:54:46.892Z,55.32
2023-03-16T00:57:18.883Z,55.72
2023-03-16T00:59:47.164Z,55.30
2023-03-16T01:02:16.071Z,55.38
2023-03-16T01:04:44.810Z,55.40
2023-03-16T01:07:15.583Z,56.02
2023-03-16T01:09:43.926Z,56.08
2023-03-16T01:12:13.533Z,56.28
2023-03-16T01:14:41.650Z,56.73
2023-03-16T01:17:10.358Z,57.27
2023-03-16T01:19:38.810Z,56.56
2023-03-16T01:22:07.615Z,56.77
2023-03-16T01:24:37.103Z,57.84
2023-03-16T01:27:05.469Z,57.88
2023-03-16T01:29:33.393Z,58.18
2023-03-16T01:32:01.414Z,58.32
2023-03-16T01:34:29.240Z,58.26
2023-03-16T01:36:57.463Z,59.00
2023-03-16T01:39:25.135Z,58.47
2023-03-16T01:41:54.223Z,58.79
2023-03-16T01:44:24.440Z,58.88
2023-03-16T01:46:52.143Z,58.92
2023-03-16T01:49:21.518Z,58.89
2023-03-16T01:51:51.914Z,58.51
2023-03-16T01:54:25.152Z,58.52
2023-03-16T01:57:00.703Z,58.33
2023-03-16T01:59:31.514Z,58.60
2023-03-16T02:01:59.499Z,59.03
2023-03-16T02:04:37.443Z,58.82
2023-03-16T02:07:06.700Z,58.91
2023-03-16T02:09:34.896Z,59.19
2023-03-16T02:12:04.102Z,58.65
2023-03-16T02:14:31.891Z,58.78
2023-03-16T02:16:59.572Z,58.98
2023-03-16T02:19:36.242Z,58.69
2023-03-16T02:22:06.368Z,58.42
2023-03-16T02:24:34.183Z,57.93
2023-03-16T02:27:05.943Z,57.93
2023-03-16T02:29:57.617Z,58.70
2023-03-16T02:32:27.629Z,58.98
2023-03-16T02:34:56.179Z,59.03
2023-03-16T02:37:23.902Z,59.12
2023-03-16T02:39:51.516Z,58.65
2023-03-16T02:42:22.112Z,58.39
2023-03-16T02:44:52.044Z,58.88
2023-03-16T02:47:28.443Z,58.94
2023-03-16T02:49:56.124Z,58.96
2023-03-16T02:52:23.859Z,58.63
2023-03-16T02:54:51.513Z,58.29
2023-03-16T02:57:19.540Z,58.10
2023-03-16T02:59:47.214Z,58.54
2023-03-16T03:02:14.868Z,58.44
2023-03-16T03:04:46.304Z,58.53
2023-03-16T03:07:14.370Z,58.41
2023-03-16T03:09:43.137Z,58.42
2023-03-16T03:12:11.582Z,58.40
2023-03-16T03:14:39.281Z,58.92
2023-03-16T03:17:07.384Z,58.70
2023-03-16T03:19:35.120Z,58.56
2023-03-16T03:22:06.389Z,59.62
2023-03-16T03:24:35.432Z,59.35
2023-03-16T03:27:05.805Z,59.67
2023-03-16T03:29:35.230Z,60.02
2023-03-16T03:32:03.290Z,60.04
2023-03-16T03:34:31.660Z,59.98
2023-03-16T03:36:59.696Z,59.21
2023-03-16T03:39:28.685Z,59.73
2023-03-16T03:41:56.388Z,60.05
2023-03-16T03:44:24.324Z,59.69
2023-03-16T03:46:52.634Z,59.49
2023-03-16T03:49:20.686Z,59.77
2023-03-16T03:51:48.496Z,59.90
2023-03-16T03:54:16.194Z,60.02
2023-03-16T03:56:45.186Z,59.38
2023-03-16T03:59:12.926Z,59.77
2023-03-16T04:01:40.614Z,59.93
2023-03-16T04:04:08.312Z,60.42
2023-03-16T04:06:36.025Z,60.14
2023-03-16T04:09:04.086Z,59.58
2023-03-16T04:11:31.779Z,59.74
2023-03-16T04:14:00.909Z,59.78
2023-03-16T04:16:28.657Z,60.11
2023-03-16T04:18:56.412Z,60.26
2023-03-16T04:21:24.295Z,59.68
2023-03-16T04:23:54.296Z,60.22
2023-03-16T04:26:22.348Z,60.19
2023-03-16T04:28:50.064Z,60.30
2023-03-16T04:31:19.213Z,60.94
2023-03-16T04:33:47.080Z,60.83
2023-03-16T04:36:14.971Z,60.78
2023-03-16T04:38:43.095Z,60.57
2023-03-16T04:41:11.319Z,59.87
2023-03-16T04:43:38.973Z,59.87
2023-03-16T04:46:07.989Z,60.75
2023-03-16T04:48:37.514Z,61.10
2023-03-16T04:51:06.591Z,60.64
2023-03-16T04:53:34.348Z,60.83
2023-03-16T04:56:02.303Z,61.49
2023-03-16T04:58:29.947Z,61.42
2023-03-16T05:00:57.634Z,61.46
2023-03-16T05:03:25.603Z,61.30
2023-03-16T05:05:54.728Z,61.22
2023-03-16T05:08:22.455Z,60.45
2023-03-16T05:10:50.175Z,61.49
2023-03-16T05:13:17.885Z,61.01
2023-03-16T05:15:45.604Z,60.45
2023-03-16T05:18:13.270Z,60.64
2023-03-16T05:20:41.240Z,60.93
2023-03-16T05:23:11.794Z,61.00
2023-03-16T05:25:40.428Z,60.65
2023-03-16T05:28:08.366Z,60.87
2023-03-16T05:30:36.905Z,60.49
2023-03-16T05:33:04.740Z,60.79
2023-03-16T05:35:32.534Z,60.79
2023-03-16T05:38:00.241Z,60.73
2023-03-16T05:40:29.650Z,61.24
2023-03-16T05:43:00.308Z,61.03
2023-03-16T05:45:28.886Z,60.88
2023-03-16T05:47:56.667Z,60.72
2023-03-16T05:50:24.872Z,60.69
2023-03-16T05:52:52.573Z,59.95
2023-03-16T05:55:20.359Z,61.16
2023-03-16T05:57:49.358Z,60.76
2023-03-16T06:00:19.119Z,60.39
2023-03-16T06:02:48.322Z,60.00
2023-03-16T06:05:17.165Z,60.45
2023-03-16T06:07:45.064Z,60.73
2023-03-16T06:10:13.415Z,60.45
2023-03-16T06:12:41.996Z,60.62
2023-03-16T06:15:12.230Z,60.20
2023-03-16T06:17:41.375Z,60.75
2023-03-16T06:20:11.443Z,60.69
2023-03-16T06:22:39.654Z,60.44
2023-03-16T06:25:08.343Z,59.71
2023-03-16T06:27:36.024Z,59.60
2023-03-16T06:30:03.956Z,59.14
2023-03-16T06:32:33.106Z,59.40
2023-03-16T06:35:02.233Z,59.39
2023-03-16T06:37:30.035Z,59.99
2023-03-16T06:39:57.813Z,60.05
2023-03-16T06:42:25.498Z,59.47
2023-03-16T06:44:53.362Z,59.12
2023-03-16T06:47:21.589Z,58.43
2023-03-16T06:49:51.851Z,58.36
2023-03-16T06:52:19.602Z,58.95
2023-03-16T06:54:47.303Z,58.37
2023-03-16T06:57:15.233Z,58.40
2023-03-16T06:59:42.931Z,57.74
2023-03-16T07:02:11.976Z,57.62
2023-03-16T07:04:39.819Z,56.86
2023-03-16T07:07:09.309Z,55.89
2023-03-16T07:09:39.598Z,56.01
2023-03-16T07:12:09.414Z,55.94
2023-03-16T07:14:37.472Z,56.30
2023-03-16T07:17:05.315Z,57.54
2023-03-16T07:19:33.191Z,57.24
2023-03-16T07:22:02.702Z,57.31
2023-03-16T07:24:32.726Z,57.33
2023-03-16T07:27:00.498Z,56.59
2023-03-16T07:29:28.232Z,55.77
2023-03-16T07:31:56.292Z,55.41
2023-03-16T07:34:24.048Z,55.12
2023-03-16T07:36:52.755Z,55.60
2023-03-16T07:39:21.549Z,55.21
2023-03-16T07:41:51.355Z,55.19
2023-03-16T07:44:19.032Z,55.07
2023-03-16T07:46:46.691Z,55.17
2023-03-16T07:49:14.450Z,54.86
2023-03-16T07:51:42.152Z,54.45
2023-03-16T07:54:09.897Z,54.07
2023-03-16T07:56:48.415Z,54.32
2023-03-16T07:59:20.775Z,53.01
2023-03-16T08:01:48.906Z,53.08
2023-03-16T08:04:16.645Z,53.18
2023-03-16T08:06:44.367Z,52.34
2023-03-16T08:09:12.216Z,52.89
2023-03-16T08:11:40.059Z,53.72
2023-03-16T08:14:07.780Z,54.31
2023-03-16T08:16:37.498Z,53.81
2023-03-16T08:19:05.365Z,53.40
2023-03-16T08:21:33.056Z,54.13
2023-03-16T08:24:01.700Z,53.45
2023-03-16T08:26:29.565Z,53.63
2023-03-16T08:28:58.783Z,52.62
2023-03-16T08:31:26.608Z,52.45
2023-03-16T08:33:56.063Z,53.68
2023-03-16T08:36:24.192Z,53.88
2023-03-16T08:39:05.923Z,53.92
2023-03-16T08:41:34.637Z,54.00
2023-03-16T08:44:03.288Z,54.59
2023-03-16T08:46:31.749Z,54.04
2023-03-16T08:49:01.187Z,53.64
2023-03-16T08:51:29.624Z,53.69
2023-03-16T08:53:57.304Z,53.20
2023-03-16T08:56:25.042Z,52.25
2023-03-16T08:58:53.060Z,52.08
2023-03-16T09:01:20.864Z,52.42
2023-03-16T09:03:48.680Z,53.17
2023-03-16T09:06:18.690Z,53.76
2023-03-16T09:08:47.780Z,54.69
2023-03-16T09:11:17.229Z,54.41
2023-03-16T09:13:46.005Z,54.90
2023-03-16T09:16:15.763Z,54.77
2023-03-16T09:18:43.935Z,56.05
2023-03-16T09:21:13.257Z,57.51
2023-03-16T09:23:43.108Z,58.26
2023-03-16T09:26:12.584Z,58.66
2023-03-16T09:28:42.163Z,61.02
2023-03-16T09:31:11.766Z,62.58
2023-03-16T09:33:39.953Z,62.85
2023-03-16T09:36:07.783Z,63.12
2023-03-16T09:38:35.699Z,63.53
2023-03-16T09:41:09.521Z,64.70
2023-03-16T09:43:47.153Z,66.90
2023-03-16T09:46:17.768Z,68.33
2023-03-16T09:48:45.583Z,68.64
2023-03-16T09:51:20.036Z,71.01
2023-03-16T09:53:48.265Z,71.33
2023-03-16T09:56:21.681Z,71.60
2023-03-16T09:58:49.328Z,71.14
2023-03-16T10:01:24.173Z,72.49
2023-03-16T10:04:06.646Z,74.10
2023-03-16T10:06:34.888Z,75.34
2023-03-16T10:09:08.400Z,74.57
2023-03-16T10:11:39.682Z,74.90
2023-03-16T10:14:17.614Z,74.70
2023-03-16T10:16:48.585Z,73.96
2023-03-16T10:19:19.451Z,73.37
2023-03-16T10:21:48.301Z,74.01
2023-03-16T10:24:25.330Z,74.01
2023-03-16T10:27:00.024Z,74.25
2023-03-16T10:29:29.257Z,73.22
2023-03-16T10:32:01.423Z,74.01
2023-03-16T10:34:30.608Z,73.96
2023-03-16T10:36:58.388Z,75.04
2023-03-16T10:39:26.504Z,74.89
2023-03-16T10:42:00.409Z,74.22
2023-03-16T10:44:29.910Z,73.11
2023-03-16T10:47:03.419Z,71.85
2023-03-16T10:49:39.414Z,71.97
2023-03-16T10:52:12.948Z,69.92
2023-03-16T10:54:41.663Z,69.13
2023-03-16T10:57:22.666Z,66.79
2023-03-16T10:59:52.147Z,67.88
2023-03-16T11:02:23.105Z,66.97
2023-03-16T11:04:50.959Z,65.84
2023-03-16T11:07:20.045Z,65.72
2023-03-16T11:09:48.313Z,64.60
2023-03-16T11:12:24.180Z,62.00
2023-03-16T11:14:51.937Z,62.62
2023-03-16T11:17:23.767Z,62.54
2023-03-16T11:19:54.509Z,62.76
2023-03-16T11:22:24.285Z,63.84
2023-03-16T11:24:55.564Z,63.36
2023-03-16T11:27:27.883Z,63.12
2023-03-16T11:30:05.669Z,62.32
2023-03-16T11:32:36.143Z,61.87
2023-03-16T11:35:08.828Z,60.91
2023-03-16T11:37:48.509Z,58.79
2023-03-16T11:40:26.580Z,58.64
2023-03-16T11:43:02.892Z,59.50
2023-03-16T11:45:35.317Z,58.92
2023-03-16T11:48:14.609Z,59.79
2023-03-16T11:50:52.697Z,58.36
2023-03-16T11:53:30.915Z,58.32
2023-03-16T11:56:06.552Z,57.87
2023-03-16T11:58:46.341Z,57.29
2023-03-16T12:01:19.677Z,56.60
2023-03-16T12:04:21.112Z,55.86
2023-03-16T12:07:00.947Z,55.66
2023-03-16T12:09:52.280Z,55.95
2023-03-16T12:12:30.686Z,55.46
2023-03-16T12:15:11.222Z,54.77
2023-03-16T12:17:39.199Z,53.63
2023-03-16T12:20:15.316Z,52.11
2023-03-16T12:22:45.077Z,52.16
2023-03-16T12:25:17.148Z,52.27
2023-03-16T12:27:45.000Z,51.70
2023-03-16T12:30:28.474Z,51.76
2023-03-16T12:33:02.145Z,50.94
2023-03-16T12:35:38.767Z,50.40
2023-03-16T12:38:24.191Z,50.64
2023-03-16T12:41:00.018Z,49.80
2023-03-16T12:43:37.013Z,49.08
2023-03-16T12:46:09.469Z,48.63
2023-03-16T12:48:39.813Z,49.67
2023-03-16T12:51:07.575Z,48.98
2023-03-16T12:53:46.877Z,48.76
2023-03-16T12:56:16.384Z,49.21
2023-03-16T12:58:45.621Z,48.77
2023-03-16T13:01:16.983Z,48.26
2023-03-16T13:03:45.494Z,48.94
2023-03-16T13:06:22.410Z,49.58
2023-03-16T13:08:53.991Z,50.57
2023-03-16T13:11:21.689Z,50.99
2023-03-16T13:13:52.571Z,50.99
2023-03-16T13:16:29.636Z,49.93
2023-03-16T13:18:57.978Z,50.33
2023-03-16T13:21:37.174Z,50.13
2023-03-16T13:24:22.941Z,49.63
2023-03-16T13:26:52.185Z,50.05
2023-03-16T13:29:25.847Z,49.67
2023-03-16T13:31:56.378Z,49.95
2023-03-16T13:34:27.565Z,49.47
2023-03-16T13:36:57.974Z,48.21
2023-03-16T13:39:28.432Z,48.02
2023-03-16T13:41:59.538Z,46.46
2023-03-16T13:44:28.362Z,46.26
2023-03-16T13:46:57.613Z,45.58
2023-03-16T13:49:25.379Z,46.44
2023-03-16T13:51:53.740Z,46.15
2023-03-16T13:54:26.151Z,47.31
2023-03-16T13:56:54.423Z,46.90
2023-03-16T13:59:23.111Z,45.82
2023-03-16T14:01:59.832Z,45.91
2023-03-16T14:04:30.095Z,44.76
2023-03-16T14:06:59.324Z,44.75
2023-03-16T14:09:28.751Z,44.63
2023-03-16T14:11:57.646Z,45.18
2023-03-16T14:14:31.949Z,45.62
2023-03-16T14:17:06.718Z,44.83
2023-03-16T14:19:42.498Z,44.52
2023-03-16T14:22:18.544Z,44.94
2023-03-16T14:24:47.996Z,44.83
2023-03-16T14:27:21.847Z,43.40
2023-03-16T14:29:55.719Z,42.97
2023-03-16T14:32:28.568Z,43.36
2023-03-16T14:35:13.924Z,43.65
2023-03-16T14:37:42.383Z,43.61
2023-03-16T14:40:24.354Z,43.91
2023-03-16T14:42:53.425Z,43.65
2023-03-16T14:45:22.094Z,42.50
2023-03-16T14:47:53.622Z,42.31
2023-03-16T14:50:25.156Z,42.31
2023-03-16T14:52:55.832Z,41.95
2023-03-16T14:55:24.820Z,42.09
2023-03-16T14:57:53.296Z,42.01
2023-03-16T15:00:22.875Z,42.17
2023-03-16T15:02:58.639Z,42.05
2023-03-16T15:05:36.626Z,41.04
2023-03-16T15:08:05.324Z,42.04
2023-03-16T15:10:34.394Z,41.89
2023-03-16T15:13:14.064Z,41.44
2023-03-16T15:15:42.924Z,41.54
2023-03-16T15:18:12.056Z,41.72
2023-03-16T15:20:42.079Z,42.09
2023-03-16T15:23:13.540Z,42.21
2023-03-16T15:25:42.160Z,41.69
2023-03-16T15:28:15.743Z,41.92
2023-03-16T15:30:44.619Z,42.17
2023-03-16T15:33:14.077Z,42.89
2023-03-16T15:35:42.626Z,42.33
2023-03-16T15:38:15.927Z,42.55
2023-03-16T15:40:45.641Z,42.83
2023-03-16T15:43:13.828Z,42.93
2023-03-16T15:45:41.739Z,42.57
2023-03-16T15:48:11.029Z,42.96
2023-03-16T15:50:41.909Z,42.03
2023-03-16T15:53:29.297Z,42.02
2023-03-16T15:56:02.901Z,42.41
2023-03-16T15:58:31.635Z,41.92
2023-03-16T16:01:00.584Z,41.76
2023-03-16T16:03:28.841Z,41.28
2023-03-16T16:05:58.175Z,41.79
2023-03-16T16:08:25.869Z,42.45
2023-03-16T16:10:53.844Z,41.73
2023-03-16T16:13:26.754Z,41.80
2023-03-16T16:15:57.675Z,42.46
2023-03-16T16:18:31.859Z,42.03
2023-03-16T16:21:02.924Z,42.11
2023-03-16T16:23:31.180Z,42.35
2023-03-16T16:26:01.374Z,42.24
2023-03-16T16:28:32.549Z,42.52
2023-03-16T16:31:01.932Z,42.98
2023-03-16T16:33:31.495Z,43.10
2023-03-16T16:36:01.994Z,43.24
2023-03-16T16:38:30.336Z,43.11
2023-03-16T16:40:59.000Z,43.66
2023-03-16T16:43:32.489Z,43.64
2023-03-16T16:46:00.902Z,44.22
2023-03-16T16:48:32.920Z,44.55
2023-03-16T16:51:02.334Z,44.64
2023-03-16T16:53:30.686Z,44.90
2023-03-16T16:55:58.506Z,44.88
2023-03-16T16:58:26.422Z,45.47
2023-03-16T17:00:56.317Z,45.58
2023-03-16T17:03:25.625Z,45.79
2023-03-16T17:05:53.904Z,45.94
2023-03-16T17:08:23.593Z,45.71
2023-03-16T17:10:52.312Z,45.88
2023-03-16T17:13:26.693Z,46.37
2023-03-16T17:15:54.978Z,46.66
2023-03-16T17:18:23.081Z,47.00
2023-03-16T17:20:52.250Z,47.05
2023-03-16T17:23:28.123Z,47.95
2023-03-16T17:25:56.494Z,47.75
2023-03-16T17:28:26.090Z,48.06
2023-03-16T17:30:53.859Z,48.67
2023-03-16T17:33:21.614Z,48.57
2023-03-16T17:35:49.538Z,48.85
2023-03-16T17:38:19.459Z,49.13
2023-03-16T17:40:48.716Z,50.58
2023-03-16T17:43:17.806Z,49.24
2023-03-16T17:45:46.715Z,50.21
2023-03-16T17:48:16.540Z,50.47
2023-03-16T17:50:46.095Z,50.61
2023-03-16T17:53:13.898Z,50.48
2023-03-16T17:55:42.236Z,50.27
2023-03-16T17:58:23.355Z,51.23
2023-03-16T18:00:51.021Z,50.94
2023-03-16T18:03:18.761Z,51.30
2023-03-16T18:05:46.760Z,51.43
2023-03-16T18:08:17.257Z,51.70
2023-03-16T18:10:45.554Z,51.96
2023-03-16T18:13:20.774Z,52.12
2023-03-16T18:15:49.258Z,52.63
2023-03-16T18:18:21.481Z,51.88
2023-03-16T18:20:50.763Z,52.72
2023-03-16T18:23:20.950Z,52.34
2023-03-16T18:25:50.030Z,53.19
2023-03-16T18:28:19.808Z,52.33
2023-03-16T18:30:49.006Z,52.79
2023-03-16T18:33:23.520Z,53.13
2023-03-16T18:35:51.764Z,53.20
2023-03-16T18:38:25.373Z,53.98
2023-03-16T18:40:53.159Z,54.32
2023-03-16T18:43:22.265Z,54.10
2023-03-16T18:45:50.628Z,54.57
2023-03-16T18:48:23.323Z,55.22
2023-03-16T18:50:51.388Z,54.73
2023-03-16T18:53:19.896Z,55.24
2023-03-16T18:55:47.984Z,55.20
2023-03-16T18:58:17.756Z,55.00
2023-03-16T19:00:51.635Z,55.03
2023-03-16T19:03:25.830Z,55.15
2023-03-16T19:05:54.259Z,55.80
2023-03-16T19:08:22.605Z,55.29
2023-03-16T19:10:52.872Z,55.44
2023-03-16T19:13:22.549Z,55.95
2023-03-16T19:15:53.094Z,56.61
2023-03-16T19:18:21.222Z,56.06
2023-03-16T19:20:50.410Z,56.90
2023-03-16T19:23:21.851Z,56.20
2023-03-16T19:25:49.927Z,57.58
2023-03-16T19:28:23.950Z,58.42
2023-03-16T19:30:53.034Z,56.82
2023-03-16T19:33:22.646Z,56.47
2023-03-16T19:35:52.185Z,56.76
2023-03-16T19:38:21.363Z,57.06
2023-03-16T19:40:50.647Z,55.99
2023-03-16T19:43:19.182Z,56.32
2023-03-16T19:45:47.993Z,55.53
2023-03-16T19:48:20.336Z,55.42
2023-03-16T19:50:49.185Z,55.02
2023-03-16T19:53:18.777Z,54.03
2023-03-16T19:55:48.026Z,53.43
2023-03-16T19:58:21.014Z,53.52
2023-03-16T20:00:49.214Z,53.28
2023-03-16T20:03:18.279Z,53.14
2023-03-16T20:05:45.931Z,53.33
2023-03-16T20:08:22.436Z,53.65
2023-03-16T20:10:51.006Z,53.70
2023-03-16T20:13:19.965Z,53.77
2023-03-16T20:15:47.690Z,53.58
2023-03-16T20:18:18.996Z,53.97
2023-03-16T20:20:47.503Z,53.22
2023-03-16T20:23:20.700Z,52.77
2023-03-16T20:25:49.228Z,53.11
2023-03-16T20:28:20.077Z,53.24
2023-03-16T20:30:48.769Z,52.56
2023-03-16T20:33:23.803Z,52.70
2023-03-16T20:35:53.408Z,51.94
2023-03-16T20:38:21.838Z,52.80
2023-03-16T20:40:53.119Z,52.18
2023-03-16T20:43:25.101Z,52.49
2023-03-16T20:45:54.301Z,52.75
2023-03-16T20:48:25.422Z,51.93
2023-03-16T20:50:53.380Z,52.46
2023-03-16T20:53:21.502Z,52.55
2023-03-16T20:55:49.362Z,52.25
2023-03-16T20:58:22.875Z,52.01
2023-03-16T21:00:51.700Z,52.28
2023-03-16T21:03:20.901Z,51.91
2023-03-16T21:05:50.815Z,51.76
2023-03-16T21:08:18.819Z,51.23
2023-03-16T21:10:48.372Z,51.95
2023-03-16T21:13:19.844Z,51.92
2023-03-16T21:15:50.015Z,51.59
2023-03-16T21:18:20.223Z,52.37
2023-03-16T21:20:50.765Z,50.91
2023-03-16T21:23:21.171Z,51.21
2023-03-16T21:25:50.944Z,51.48
2023-03-16T21:28:20.438Z,51.84
2023-03-16T21:30:49.574Z,51.82
2023-03-16T21:33:20.736Z,51.51
2023-03-16T21:35:50.047Z,51.86
2023-03-16T21:38:19.465Z,51.08
2023-03-16T21:40:48.137Z,51.65
2023-03-16T21:43:16.672Z,51.68
2023-03-16T21:45:45.370Z,51.44
2023-03-16T21:48:15.513Z,51.46
2023-03-16T21:50:44.112Z,51.17
2023-03-16T21:53:22.106Z,51.55
2023-03-16T21:55:50.481Z,50.84
2023-03-16T21:58:18.422Z,51.20
2023-03-16T22:00:47.311Z,51.50
2023-03-16T22:03:29.518Z,51.40
2023-03-16T22:06:01.454Z,51.47
2023-03-16T22:08:32.587Z,51.74
2023-03-16T22:11:00.850Z,51.21
2023-03-16T22:13:28.953Z,51.71
2023-03-16T22:15:58.769Z,52.26
2023-03-16T22:18:29.218Z,51.99
2023-03-16T22:20:58.404Z,52.23
2023-03-16T22:23:34.178Z,51.76
2023-03-16T22:26:02.160Z,52.67
2023-03-16T22:28:29.971Z,51.90
2023-03-16T22:30:58.649Z,52.38
2023-03-16T22:33:29.832Z,52.64
2023-03-16T22:35:59.482Z,52.57
2023-03-16T22:38:27.181Z,52.92
2023-03-16T22:40:56.235Z,52.19
2023-03-16T22:43:29.435Z,52.94
2023-03-16T22:45:57.308Z,53.13
2023-03-16T22:48:26.921Z,53.40
2023-03-16T22:50:55.456Z,52.53
2023-03-16T22:53:27.010Z,53.30
2023-03-16T22:55:57.124Z,53.28
2023-03-16T22:58:29.323Z,54.26
2023-03-16T23:00:57.020Z,54.29
2023-03-16T23:03:25.338Z,54.96
2023-03-16T23:05:53.348Z,55.16
2023-03-16T23:08:23.525Z,54.67
2023-03-16T23:10:52.456Z,54.70
2023-03-16T23:13:24.069Z,55.16
2023-03-16T23:15:53.487Z,55.00
2023-03-16T23:18:23.496Z,55.45
2023-03-16T23:20:52.547Z,55.25
2023-03-16T23:23:20.520Z,55.57
2023-03-16T23:25:49.029Z,55.89
2023-03-16T23:28:18.393Z,55.33
2023-03-16T23:30:49.232Z,55.44
2023-03-16T23:33:17.562Z,55.13
2023-03-16T23:35:46.624Z,55.02
2023-03-16T23:38:14.574Z,54.78
2023-03-16T23:40:42.248Z,55.02
2023-03-16T23:43:10.097Z,54.78
2023-03-16T23:45:40.307Z,55.50
2023-03-16T23:48:13.492Z,54.47
2023-03-16T23:50:43.120Z,54.30
2023-03-16T23:53:16.082Z,53.93
2023-03-16T23:55:44.348Z,53.35
2023-03-16T23:58:12.655Z,52.96
